Portada
METAR-TAF:

METAR-TAF

Aeropuertos :

Estocolmo-Arlanda, Suecia

Aeropuerto de Estocolmo-Arlanda

latitud: 59-39N, longitud: 017-57E, altitud: 38 m

Observación

El informe se hizo hace 40 minutos, a las 21:20 UTC
Viento 8 kt del noreste
Temperatura 13°C
Humedad 94%
Presión 1028 hPa
Visibilidad 10 km o más
Cielo cubierto a una altura de 600 ft

METAR: ESSA 232120Z 05008KT 9999 OVC006 13/12 Q1028 NOSIG

Hora: 00:00 (22:00 UTC)

Pronóstico

El informe se hizo hace 29 minutos, a las 21:31 UTC
Pronóstico válido del 23 a las 21 UTC al 24 a las 18 UTC
Viento 8 kt del noreste
Visibilidad 10 km o más
Cielo cubierto a una altura de 600 ft
Evolucionando progresivamente
del 23 a las 22 UTC al 23 a las 24 UTC
Nubes dispersas a una altura de 1800 ft
Probabilidad 40%
del 23 a las 24 UTC al 24 a las 07 UTC
Visibilidad: 2000 m
niebla en bancos

TAF: ESSA 232131Z 2321/2418 04008KT 9999 OVC006 BECMG 2322/2324 SCT018 PROB40 2324/2407 2000 BCFG

Observaciones y pronósticos meteorológicos de más de 4000 aeropuertos (mensajes METAR y TAF).

Los puntos amarillos y rojos representan las estaciones disponibles.

Ponga el ratón en el punto deseado para ver el nombre de la estación.

Haga clic para ver las observaciones y los pronósticos meteorológicos.

Para cambiar el mapa : haga clic en los botones verdes con una cruz de color negro para hacer un zoom, en el botón verde con un guión para alejar o en las flechas verdes para mapas adyacentes.


METAR-TAF: